Weather search by city/station or by Location Indicator (LI)

Please do one of the following:
a) Search the weather station by station, city or country name and click Search button
b) Enter the four-character Location Indicator (i.e. EFHK = Helsinki) and click Submit button

a) Search the station:   

b) Location Indicator:  

The ICAO Location Indicator code is explained here.

METAR = EFHK 222120Z 22010KT 9999 SCT040 BKN120 M04/M08 Q1035 NOSIG

STATIONEFHK
NAMEHelsinki/Vantaa Arpt, --, FI
OBSERVED22.02.2019 23:20 (22.02.2019 21:20 UTC), 15 min ago
TEMPERATURE-4.0°C ( 25°F)
WINDCHILL-10 °C (14 °F)
WINDSW (220 degrees) at 12 MPH (10 knots; 5.1 m/s)
HUMIDITY74%
PRESSURE1034.9 hPa